Time;durP1;ratioP1;P1;durP2;ratioP2;P2;SDS_P1;SDS_P2;PMS_P1;PMS_P2;Temp;Humidity;BMP_temperature;BMP_pressure;BME280_temperature;BME280_humidity;BME280_pressure;Samples;Min_cycle;Max_cycle;Signal;HPM_P1;HPM_P2
2023/09/09 00:00:46;;;;;;;8.90;5.63;;;17.90;99.90;;;;;;5036688;28;20040;-91
2023/09/09 00:03:12;;;;;;;6.97;5.20;;;18.10;99.90;;;;;;5040850;28;20040;-91
2023/09/09 00:05:38;;;;;;;5.20;4.70;;;18.00;99.90;;;;;;5006782;28;20045;-91
2023/09/09 00:08:04;;;;;;;5.72;5.15;;;18.00;99.90;;;;;;5023730;28;20044;-91
2023/09/09 00:10:30;;;;;;;8.30;5.18;;;18.00;99.90;;;;;;5020664;28;20237;-90
2023/09/09 00:12:57;;;;;;;6.32;4.53;;;18.00;99.90;;;;;;5042881;28;20037;-91
2023/09/09 00:15:23;;;;;;;5.78;5.13;;;;;;;;;;5061449;28;20143;-92
2023/09/09 00:17:48;;;;;;;9.15;5.38;;;17.90;99.90;;;;;;5018352;28;20731;-91
2023/09/09 00:20:14;;;;;;;6.53;4.68;;;17.80;99.90;;;;;;5017055;28;20068;-91
2023/09/09 00:22:40;;;;;;;5.65;4.40;;;;;;;;;;5051604;28;20558;-91
2023/09/09 00:25:07;;;;;;;5.15;3.92;;;17.70;99.90;;;;;;5007901;28;20053;-91
2023/09/09 00:27:32;;;;;;;5.72;4.30;;;17.70;99.90;;;;;;5022546;28;20049;-90
2023/09/09 00:29:58;;;;;;;6.32;4.30;;;;;;;;;;5025860;28;20115;-90
2023/09/09 00:32:24;;;;;;;6.22;4.57;;;17.60;99.90;;;;;;5043027;28;20044;-91
2023/09/09 00:34:49;;;;;;;4.90;4.03;;;17.70;99.90;;;;;;5042358;28;20079;-91
2023/09/09 00:37:15;;;;;;;6.85;4.60;;;17.70;99.90;;;;;;5024200;28;20053;-90
2023/09/09 00:39:41;;;;;;;9.10;5.35;;;17.70;99.90;;;;;;5032453;28;20485;-90
2023/09/09 00:42:06;;;;;;;5.53;4.95;;;17.80;99.90;;;;;;5027271;28;20045;-90
2023/09/09 00:44:32;;;;;;;7.05;5.68;;;;;;;;;;5019185;28;20045;-90
2023/09/09 00:47:00;;;;;;;6.82;5.72;;;;;;;;;;5028630;28;20043;-91
2023/09/09 00:49:26;;;;;;;9.68;6.13;;;;;;;;;;5030695;28;20128;-91
2023/09/09 00:51:53;;;;;;;7.47;6.32;;;17.60;99.90;;;;;;5039378;28;20142;-90
2023/09/09 00:54:19;;;;;;;6.68;5.68;;;;;;;;;;5023993;28;20519;-91
2023/09/09 00:56:45;;;;;;;7.47;5.45;;;;;;;;;;5015000;28;20064;-91
2023/09/09 00:59:12;;;;;;;6.88;4.82;;;17.70;99.90;;;;;;5022287;28;20053;-90
2023/09/09 01:01:38;;;;;;;5.68;5.07;;;;;;;;;;5046260;28;20051;-90
2023/09/09 01:04:04;;;;;;;6.85;4.70;;;;;;;;;;5030673;28;20044;-90
2023/09/09 01:06:30;;;;;;;5.75;4.90;;;;;;;;;;5019155;28;20187;-90
2023/09/09 01:08:56;;;;;;;7.15;4.43;;;;;;;;;;5043364;28;20076;-90
2023/09/09 01:11:22;;;;;;;6.38;5.30;;;;;;;;;;5045489;28;20403;-90
2023/09/09 01:13:48;;;;;;;7.78;5.53;;;17.40;99.90;;;;;;5010467;28;20036;-90
2023/09/09 01:16:14;;;;;;;5.63;5.03;;;17.50;99.90;;;;;;5014517;28;20033;-91
2023/09/09 01:18:40;;;;;;;5.45;4.80;;;17.40;99.90;;;;;;5027682;28;20037;-89
2023/09/09 01:21:06;;;;;;;7.32;4.55;;;;;;;;;;5022294;28;20202;-90
2023/09/09 01:23:32;;;;;;;6.82;5.10;;;;;;;;;;5023896;28;20575;-91
2023/09/09 01:25:58;;;;;;;5.25;4.75;;;;;;;;;;5013074;28;20057;-90
2023/09/09 01:28:24;;;;;;;5.75;5.00;;;;;;;;;;5025322;28;20166;-91
2023/09/09 01:30:50;;;;;;;7.00;4.93;;;;;;;;;;5008509;28;20052;-91
2023/09/09 01:33:16;;;;;;;5.10;4.60;;;17.50;99.90;;;;;;5026392;28;20060;-91
2023/09/09 01:35:42;;;;;;;9.75;5.90;;;17.10;99.90;;;;;;5044971;28;20040;-91
2023/09/09 01:38:08;;;;;;;7.50;5.70;;;;;;;;;;5063966;28;20079;-91
2023/09/09 01:40:34;;;;;;;5.43;4.93;;;;;;;;;;5029444;28;20056;-91
2023/09/09 01:43:00;;;;;;;7.07;6.18;;;;;;;;;;5025589;28;20343;-91
2023/09/09 01:45:26;;;;;;;7.43;6.72;;;;;;;;;;5028544;28;20049;-91
2023/09/09 01:47:52;;;;;;;10.60;7.25;;;;;;;;;;5046183;28;20590;-91
2023/09/09 01:50:17;;;;;;;10.23;7.43;;;17.20;99.90;;;;;;5052317;28;20238;-91
2023/09/09 01:52:43;;;;;;;7.28;6.57;;;;;;;;;;5015574;28;20113;-90
2023/09/09 01:55:09;;;;;;;8.32;6.00;;;;;;;;;;5033292;28;20044;-91
2023/09/09 01:57:35;;;;;;;7.25;5.88;;;;;;;;;;5016606;28;20124;-90
2023/09/09 02:00:06;;;;;;;5.45;4.72;;;17.00;99.90;;;;;;5044858;28;20044;-90
2023/09/09 02:02:33;;;;;;;7.32;6.40;;;;;;;;;;5027170;28;20508;-91
2023/09/09 02:04:59;;;;;;;9.65;7.38;;;;;;;;;;5023911;28;20036;-91
2023/09/09 02:07:24;;;;;;;9.80;8.00;;;;;;;;;;5027207;28;20055;-90
2023/09/09 02:09:52;;;;;;;11.25;8.90;;;;;;;;;;5035176;28;20086;-91
2023/09/09 02:12:18;;;;;;;18.17;11.73;;;;;;;;;;5019185;28;20052;-91
2023/09/09 02:14:44;;;;;;;14.10;11.02;;;;;;;;;;5024581;28;20040;-90
2023/09/09 02:17:12;;;;;;;18.38;13.50;;;;;;;;;;5004936;28;20049;-90
2023/09/09 02:19:38;;;;;;;17.60;13.45;;;;;;;;;;5019620;28;20503;-90
2023/09/09 02:22:07;;;;;;;14.88;12.65;;;17.70;99.90;;;;;;5008457;28;20486;-91
2023/09/09 02:24:33;;;;;;;14.15;11.15;;;;;;;;;;5005495;28;20119;-90
2023/09/09 02:26:59;;;;;;;16.73;13.07;;;;;;;;;;5032987;28;20576;-90
2023/09/09 02:29:26;;;;;;;15.60;11.52;;;;;;;;;;5023640;28;20097;-91
2023/09/09 02:31:52;;;;;;;14.68;10.65;;;17.60;99.90;;;;;;5026567;28;20470;-91
2023/09/09 02:34:18;;;;;;;12.88;10.00;;;;;;;;;;5027083;28;20039;-89
2023/09/09 02:36:45;;;;;;;11.13;9.60;;;17.60;99.90;;;;;;5026118;28;20093;-91
2023/09/09 02:39:11;;;;;;;13.38;11.82;;;;;;;;;;5020923;28;20056;-91
2023/09/09 02:41:37;;;;;;;13.20;11.02;;;;;;;;;;5041584;28;20053;-90
2023/09/09 02:44:03;;;;;;;12.90;11.52;;;;;;;;;;5016145;28;20439;-91
2023/09/09 02:46:29;;;;;;;13.55;12.15;;;;;;;;;;5039335;28;20054;-90
2023/09/09 02:48:55;;;;;;;17.50;13.35;;;;;;;;;;5057504;28;20459;-91
2023/09/09 02:51:20;;;;;;;14.23;12.73;;;17.30;99.90;;;;;;5022326;28;20040;-91
2023/09/09 02:53:46;;;;;;;17.40;14.30;;;;;;;;;;5013560;28;20488;-90
2023/09/09 02:56:12;;;;;;;16.67;12.60;;;;;;;;;;5029897;28;20040;-90
2023/09/09 02:58:38;;;;;;;16.20;13.02;;;;;;;;;;5024542;28;20051;-91
2023/09/09 03:01:07;;;;;;;15.95;10.80;;;17.30;99.90;;;;;;5022284;28;20547;-91
2023/09/09 03:03:36;;;;;;;11.15;9.68;;;17.00;99.90;;;;;;5042618;28;20125;-90
2023/09/09 03:06:02;;;;;;;12.07;10.57;;;;;;;;;;5034476;28;20041;-91
2023/09/09 03:08:29;;;;;;;11.15;9.35;;;17.00;99.90;;;;;;5029365;28;20048;-91
2023/09/09 03:10:55;;;;;;;11.45;9.63;;;;;;;;;;5015881;28;20114;-91
2023/09/09 03:13:21;;;;;;;12.13;10.13;;;;;;;;;;5030837;28;20040;-91
2023/09/09 03:15:47;;;;;;;15.02;11.55;;;;;;;;;;5021020;28;20037;-89
2023/09/09 03:18:13;;;;;;;13.73;11.68;;;;;;;;;;5014786;28;20408;-91
2023/09/09 03:20:39;;;;;;;13.88;10.45;;;;;;;;;;5058105;28;20044;-91
2023/09/09 03:23:06;;;;;;;12.05;10.52;;;;;;;;;;5030226;28;20048;-92
2023/09/09 03:25:32;;;;;;;12.63;11.10;;;;;;;;;;5051113;28;20123;-91
2023/09/09 03:27:58;;;;;;;17.83;14.25;;;;;;;;;;5019085;28;20139;-91
2023/09/09 03:30:24;;;;;;;19.55;13.82;;;;;;;;;;5040782;28;20033;-89
2023/09/09 03:32:50;;;;;;;18.25;15.50;;;;;;;;;;5015554;28;20033;-90
2023/09/09 03:35:17;;;;;;;24.17;20.17;;;;;;;;;;5014748;28;20041;-91
2023/09/09 03:37:43;;;;;;;20.70;17.38;;;;;;;;;;5052397;28;20125;-90
2023/09/09 03:40:09;;;;;;;20.85;17.63;;;16.80;99.90;;;;;;5034731;28;20061;-91
2023/09/09 03:42:35;;;;;;;22.83;17.30;;;;;;;;;;5038643;28;20055;-90
2023/09/09 03:45:01;;;;;;;19.23;16.67;;;;;;;;;;5023601;28;20048;-90
2023/09/09 03:47:27;;;;;;;23.85;17.45;;;;;;;;;;5035761;28;20056;-90
2023/09/09 03:49:53;;;;;;;21.00;17.30;;;;;;;;;;5020670;28;20493;-90
2023/09/09 03:52:19;;;;;;;23.13;19.27;;;;;;;;;;5017545;28;20125;-90
2023/09/09 03:54:45;;;;;;;25.25;19.15;;;;;;;;;;5043607;28;20040;-91
2023/09/09 03:57:11;;;;;;;22.60;18.20;;;;;;;;;;5044751;28;20037;-91
2023/09/09 03:59:37;;;;;;;27.45;21.67;;;16.90;99.90;;;;;;5048532;28;20401;-91
2023/09/09 04:02:02;;;;;;;22.38;17.85;;;17.20;99.90;;;;;;5010326;28;20120;-89
2023/09/09 04:04:28;;;;;;;23.73;17.88;;;;;;;;;;5035778;28;20476;-92
2023/09/09 04:06:54;;;;;;;20.83;17.13;;;;;;;;;;5062004;28;20036;-91
2023/09/09 04:09:26;;;;;;;20.75;16.10;;;;;;;;;;5043305;28;20047;-90
2023/09/09 04:11:52;;;;;;;18.90;16.17;;;;;;;;;;5024367;28;20037;-89
2023/09/09 04:14:18;;;;;;;20.73;17.00;;;;;;;;;;5040637;28;20079;-90
2023/09/09 04:16:44;;;;;;;19.65;15.38;;;;;;;;;;5046731;28;20072;-91
2023/09/09 04:19:10;;;;;;;17.48;14.23;;;;;;;;;;5026582;28;20520;-90
2023/09/09 04:21:36;;;;;;;18.08;15.52;;;;;;;;;;5028701;28;20068;-90
2023/09/09 04:24:02;;;;;;;15.15;13.55;;;;;;;;;;5046616;28;20044;-90
2023/09/09 04:26:28;;;;;;;17.13;13.93;;;;;;;;;;5019450;28;20041;-90
2023/09/09 04:28:54;;;;;;;17.48;12.75;;;;;;;;;;5025501;28;20045;-90
2023/09/09 04:31:20;;;;;;;19.80;14.55;;;;;;;;;;5047273;28;20037;-90
2023/09/09 04:33:46;;;;;;;18.25;14.07;;;;;;;;;;5019729;28;20045;-90
2023/09/09 04:36:12;;;;;;;14.77;12.07;;;;;;;;;;5028898;28;20378;-89
2023/09/09 04:38:39;;;;;;;17.67;15.80;;;;;;;;;;5023111;28;20498;-90
2023/09/09 04:41:05;;;;;;;18.95;15.48;;;;;;;;;;5046342;28;20142;-89
2023/09/09 04:43:31;;;;;;;23.60;17.35;;;;;;;;;;5041880;28;20516;-90
2023/09/09 04:45:57;;;;;;;23.70;18.50;;;;;;;;;;5027285;28;20146;-90
2023/09/09 04:48:23;;;;;;;22.67;16.73;;;;;;;;;;5021437;28;20057;-91
2023/09/09 04:50:49;;;;;;;20.33;14.82;;;;;;;;;;5016577;28;20453;-90
2023/09/09 04:53:15;;;;;;;17.23;14.05;;;;;;;;;;5016359;28;20036;-90
2023/09/09 04:55:41;;;;;;;20.67;16.00;;;;;;;;;;5007211;28;20036;-91
2023/09/09 04:58:10;;;;;;;20.00;15.30;;;16.10;99.90;;;;;;5020291;28;20049;-88
2023/09/09 05:00:36;;;;;;;16.63;12.93;;;;;;;;;;5014639;28;20045;-90
2023/09/09 05:03:02;;;;;;;13.02;11.70;;;;;;;;;;5058971;28;20048;-90
2023/09/09 05:05:28;;;;;;;16.58;14.70;;;;;;;;;;5055682;28;20485;-91
2023/09/09 05:07:54;;;;;;;20.77;17.02;;;;;;;;;;5026896;28;20044;-90
2023/09/09 05:10:19;;;;;;;18.75;16.17;;;16.20;99.90;;;;;;5023702;28;20059;-90
2023/09/09 05:12:45;;;;;;;22.73;15.98;;;;;;;;;;5023600;28;20039;-91
2023/09/09 05:15:13;;;;;;;24.10;19.98;;;;;;;;;;5025292;28;20036;-91
2023/09/09 05:17:39;;;;;;;20.98;16.10;;;;;;;;;;5018685;28;20083;-90
2023/09/09 05:20:05;;;;;;;20.23;14.85;;;16.40;99.90;;;;;;5062250;28;20045;-88
2023/09/09 05:22:31;;;;;;;18.17;15.68;;;;;;;;;;5042453;28;20045;-90
2023/09/09 05:24:57;;;;;;;23.85;18.25;;;;;;;;;;5056662;28;20052;-90
2023/09/09 05:27:23;;;;;;;21.92;18.60;;;;;;;;;;5042924;28;20048;-90
2023/09/09 05:29:49;;;;;;;22.13;17.80;;;;;;;;;;5028113;28;20468;-89
2023/09/09 05:32:16;;;;;;;21.83;17.25;;;16.70;99.90;;;;;;5048089;28;20112;-90
2023/09/09 05:34:42;;;;;;;18.65;16.27;;;;;;;;;;5028351;28;20052;-89
2023/09/09 05:37:08;;;;;;;21.50;17.45;;;;;;;;;;5044958;28;20044;-91
2023/09/09 05:39:34;;;;;;;26.45;20.88;;;;;;;;;;5038397;28;20052;-91
2023/09/09 05:42:00;;;;;;;26.00;20.25;;;;;;;;;;5028941;28;20405;-90
2023/09/09 05:44:36;;;;;;;20.75;17.38;;;16.90;99.90;;;;;;5016491;28;20045;-92
2023/09/09 05:47:55;;;;;;;20.95;17.85;;;17.10;99.90;;;;;;5019703;28;20153;-92
2023/09/09 05:50:24;;;;;;;19.15;15.05;;;;;;;;;;5027638;28;20052;-93
2023/09/09 05:52:50;;;;;;;16.50;14.32;;;;;;;;;;5009659;28;20033;-92
2023/09/09 05:55:16;;;;;;;17.17;14.10;;;;;;;;;;5047442;28;20132;-93
2023/09/09 05:57:42;;;;;;;14.68;12.63;;;;;;;;;;5015790;28;20037;-94
2023/09/09 06:00:09;;;;;;;17.45;13.32;;;;;;;;;;5018059;28;20536;-93
2023/09/09 06:02:36;;;;;;;15.45;12.95;;;;;;;;;;5014916;28;20421;-91
2023/09/09 06:05:02;;;;;;;14.05;12.48;;;;;;;;;;5016023;28;20517;-91
2023/09/09 06:07:59;;;;;;;20.85;15.85;;;18.10;99.90;;;;;;5026391;28;20541;-93
2023/09/09 06:10:27;;;;;;;18.77;15.23;;;17.40;99.90;;;;;;5012281;28;20048;-91
2023/09/09 06:13:13;;;;;;;18.08;16.10;;;17.60;99.90;;;;;;4998173;28;20692;-91
2023/09/09 06:15:39;;;;;;;19.92;15.65;;;;;;;;;;5027831;28;20368;-90
2023/09/09 06:18:05;;;;;;;23.15;18.60;;;;;;;;;;5033409;28;20036;-92
2023/09/09 06:20:31;;;;;;;26.35;21.63;;;;;;;;;;5021216;28;20576;-93
2023/09/09 06:22:57;;;;;;;28.35;23.70;;;;;;;;;;5023565;28;20167;-92
2023/09/09 06:25:24;;;;;;;31.30;26.10;;;;;;;;;;5017267;28;20417;-92
2023/09/09 06:27:50;;;;;;;28.85;24.10;;;18.40;99.90;;;;;;5020117;28;20041;-93
2023/09/09 06:30:15;;;;;;;29.85;24.58;;;18.60;99.90;;;;;;5034076;28;20031;-92
2023/09/09 06:32:41;;;;;;;30.60;25.65;;;19.90;99.90;;;;;;5036261;28;20033;-92
2023/09/09 06:35:07;;;;;;;29.92;24.17;;;20.30;99.90;;;;;;5013068;28;20044;-94
2023/09/09 06:37:38;;;;;;;25.15;22.42;;;19.60;99.90;;;;;;5020973;28;20505;-96
2023/09/09 06:40:04;;;;;;;28.65;24.63;;;20.60;99.90;;;;;;5016699;28;20048;-93
2023/09/09 06:42:30;;;;;;;29.17;24.08;;;19.40;99.90;;;;;;5013523;28;20053;-92
2023/09/09 06:44:55;;;;;;;30.33;23.77;;;21.20;99.90;;;;;;5010147;28;20139;-94
2023/09/09 06:47:21;;;;;;;28.65;23.75;;;20.60;99.90;;;;;;5031328;28;20367;-91
2023/09/09 06:49:48;;;;;;;26.15;21.20;;;21.30;99.90;;;;;;5029512;28;20032;-95
2023/09/09 06:52:14;;;;;;;26.83;22.40;;;20.50;99.90;;;;;;5015980;28;20063;-94
2023/09/09 06:54:40;;;;;;;30.00;24.23;;;20.90;99.90;;;;;;5016268;28;20419;-93
2023/09/09 06:57:08;;;;;;;27.40;23.13;;;19.50;99.90;;;;;;5028796;28;20093;-91
2023/09/09 06:59:34;;;;;;;29.42;25.23;;;20.50;99.90;;;;;;5010839;28;20131;-92
2023/09/09 07:02:02;;;;;;;33.13;26.08;;;21.60;99.90;;;;;;5050384;28;20056;-92
2023/09/09 07:04:32;;;;;;;29.65;25.70;;;21.40;99.90;;;;;;5042919;28;20455;-92
2023/09/09 07:06:57;;;;;;;31.38;27.10;;;20.00;99.90;;;;;;5036716;28;20040;-90
2023/09/09 07:09:24;;;;;;;32.15;27.77;;;20.20;99.90;;;;;;5023590;28;20126;-93
2023/09/09 07:11:50;;;;;;;40.38;29.83;;;22.40;99.90;;;;;;5037862;28;20037;-93
2023/09/09 07:14:16;;;;;;;34.20;29.10;;;20.70;99.90;;;;;;5024371;28;20094;-92
2023/09/09 07:16:41;;;;;;;38.65;32.50;;;22.70;99.90;;;;;;5028563;28;20036;-93
2023/09/09 07:19:07;;;;;;;42.03;33.35;;;22.20;99.90;;;;;;5019486;28;20040;-91
2023/09/09 07:21:33;;;;;;;39.22;32.20;;;21.90;99.90;;;;;;5003201;28;20040;-92
2023/09/09 07:23:58;;;;;;;39.38;32.28;;;22.50;99.90;;;;;;5026315;28;20492;-92
2023/09/09 07:26:24;;;;;;;41.60;32.75;;;22.20;99.90;;;;;;5007437;28;20041;-91
2023/09/09 07:28:50;;;;;;;43.00;34.00;;;21.70;99.90;;;;;;5011543;28;20040;-89
2023/09/09 07:31:15;;;;;;;44.15;34.83;;;21.70;99.90;;;;;;5022278;28;20044;-93
2023/09/09 07:33:41;;;;;;;40.42;34.35;;;21.40;99.90;;;;;;5018541;28;20043;-92
2023/09/09 07:36:07;;;;;;;42.13;35.20;;;22.80;99.90;;;;;;5052750;28;20036;-92
2023/09/09 07:38:32;;;;;;;39.00;33.75;;;23.40;99.90;;;;;;5017796;28;20038;-92
2023/09/09 07:40:58;;;;;;;41.25;34.83;;;20.40;99.90;;;;;;5037384;28;20123;-91
2023/09/09 07:43:24;;;;;;;45.17;34.65;;;23.70;99.90;;;;;;5014484;28;20047;-93
2023/09/09 07:45:51;;;;;;;40.72;33.70;;;25.00;99.90;;;;;;5034658;28;20036;-92
2023/09/09 07:48:18;;;;;;;38.80;34.03;;;20.80;99.90;;;;;;5004766;28;20429;-92
2023/09/09 07:50:52;;;;;;;41.63;34.28;;;23.10;99.90;;;;;;5027806;28;20045;-92
2023/09/09 07:53:21;;;;;;;40.88;32.67;;;22.20;99.90;;;;;;5024596;28;20354;-93
2023/09/09 07:55:48;;;;;;;43.22;33.45;;;22.30;99.90;;;;;;5013017;28;20049;-92
2023/09/09 07:58:14;;;;;;;43.10;33.78;;;23.50;99.90;;;;;;5062591;28;20056;-92
2023/09/09 08:00:41;;;;;;;41.10;33.75;;;21.40;99.90;;;;;;5023058;28;20037;-91
2023/09/09 08:03:07;;;;;;;41.58;34.03;;;23.90;99.90;;;;;;5014722;28;20045;-93
2023/09/09 08:05:33;;;;;;;42.08;31.27;;;24.30;99.90;;;;;;5021020;28;20118;-92
2023/09/09 08:07:59;;;;;;;41.00;32.65;;;23.30;99.90;;;;;;5009582;28;20651;-90
2023/09/09 08:10:24;;;;;;;40.05;32.42;;;21.20;99.90;;;;;;5017617;28;20044;-91
2023/09/09 08:12:50;;;;;;;41.28;33.17;;;22.20;99.90;;;;;;5016031;28;20033;-91
2023/09/09 08:15:16;;;;;;;38.97;32.92;;;23.30;99.90;;;;;;5032281;28;20123;-93
2023/09/09 08:17:43;;;;;;;41.90;34.58;;;22.30;99.90;;;;;;5011133;28;20132;-92
2023/09/09 08:20:09;;;;;;;42.70;34.67;;;22.90;99.90;;;;;;5006265;28;20040;-92
2023/09/09 08:22:36;;;;;;;45.33;34.88;;;22.10;99.90;;;;;;5033226;28;20047;-92
2023/09/09 08:25:02;;;;;;;38.53;33.05;;;22.60;99.90;;;;;;5022803;28;20041;-93
2023/09/09 08:27:29;;;;;;;42.13;34.72;;;22.20;99.90;;;;;;5014615;28;20049;-92
2023/09/09 08:29:56;;;;;;;45.88;38.08;;;24.10;99.90;;;;;;5030943;28;20057;-91
2023/09/09 08:32:21;;;;;;;41.75;33.83;;;24.40;99.90;;;;;;5007331;28;20037;-91
2023/09/09 08:34:50;;;;;;;42.97;35.38;;;22.60;99.90;;;;;;5033199;28;20041;-91
2023/09/09 08:37:17;;;;;;;42.30;36.25;;;24.50;99.90;;;;;;5007207;28;20033;-93
2023/09/09 08:39:42;;;;;;;46.08;35.70;;;25.30;99.90;;;;;;5022963;28;20565;-92
2023/09/09 08:42:19;;;;;;;42.30;35.05;;;24.50;99.90;;;;;;4999258;28;20101;-91
2023/09/09 08:45:11;;;;;;;42.00;35.03;;;22.90;99.90;;;;;;5027257;28;20390;-94
2023/09/09 08:47:38;;;;;;;40.78;34.38;;;23.20;99.90;;;;;;5024566;28;20091;-93
2023/09/09 08:50:05;;;;;;;44.90;33.53;;;24.90;99.90;;;;;;5027798;28;20591;-92
2023/09/09 08:52:30;;;;;;;38.22;33.22;;;23.30;99.90;;;;;;5029587;28;20886;-93
2023/09/09 08:54:57;;;;;;;40.72;34.20;;;22.70;99.90;;;;;;5018141;28;20142;-93
2023/09/09 08:57:25;;;;;;;43.38;33.50;;;24.50;99.90;;;;;;5036190;28;20489;-95
2023/09/09 08:59:52;;;;;;;45.00;36.50;;;25.90;99.90;;;;;;5023083;28;20123;-92
2023/09/09 09:02:18;;;;;;;44.13;37.40;;;25.50;99.90;;;;;;5009569;28;20780;-91
2023/09/09 09:04:44;;;;;;;41.60;34.60;;;25.00;99.90;;;;;;5034493;28;20048;-92
2023/09/09 09:07:10;;;;;;;45.05;35.55;;;26.00;99.90;;;;;;5037188;28;20032;-92
2023/09/09 09:09:36;;;;;;;42.88;35.33;;;25.90;99.90;;;;;;5038589;28;20111;-91
2023/09/09 09:12:06;;;;;;;42.65;35.15;;;25.90;99.90;;;;;;5035969;28;20028;-92
2023/09/09 09:14:32;;;;;;;45.53;36.47;;;24.30;99.90;;;;;;5042498;28;20045;-92
2023/09/09 09:16:57;;;;;;;43.72;35.22;;;23.90;99.90;;;;;;5014092;28;20036;-92
2023/09/09 09:19:29;;;;;;;39.58;32.50;;;23.90;99.90;;;;;;5016885;28;20107;-90
2023/09/09 09:21:56;;;;;;;42.92;36.28;;;26.50;99.90;;;;;;5035048;28;20493;-91
2023/09/09 09:24:24;;;;;;;40.35;32.20;;;26.80;99.90;;;;;;5036301;28;20041;-92
2023/09/09 09:26:50;;;;;;;40.72;32.88;;;25.20;99.90;;;;;;5015516;28;20037;-91
2023/09/09 09:29:15;;;;;;;40.90;33.38;;;26.30;99.90;;;;;;5037795;28;20045;-91
2023/09/09 09:31:41;;;;;;;37.78;32.67;;;25.00;99.90;;;;;;5016096;28;20036;-91
2023/09/09 09:34:10;;;;;;;41.88;33.05;;;27.10;99.90;;;;;;5034122;28;20028;-91
2023/09/09 09:36:37;;;;;;;40.88;33.45;;;28.60;99.90;;;;;;5009021;28;20044;-91
2023/09/09 09:39:10;;;;;;;37.33;31.70;;;26.80;99.90;;;;;;5025909;28;20425;-91
2023/09/09 09:41:39;;;;;;;36.70;30.13;;;26.20;99.90;;;;;;5017164;28;20482;-91
2023/09/09 09:44:18;;;;;;;38.97;29.92;;;27.80;99.90;;;;;;5039985;28;20464;-92
2023/09/09 09:47:01;;;;;;;36.30;29.52;;;26.60;99.90;;;;;;5011618;28;20056;-91
2023/09/09 09:49:38;;;;;;;31.58;25.98;;;26.00;99.90;;;;;;5035655;28;20483;-91
2023/09/09 09:52:05;;;;;;;32.42;26.98;;;28.90;99.90;;;;;;5007906;28;20033;-92
2023/09/09 09:54:32;;;;;;;32.53;25.70;;;26.80;99.90;;;;;;5032818;28;20122;-92
2023/09/09 09:57:01;;;;;;;22.63;18.52;;;28.80;99.90;;;;;;5024376;28;20501;-92
2023/09/09 09:59:35;;;;;;;24.10;18.33;;;25.50;99.90;;;;;;5031124;28;20052;-91
2023/09/09 10:02:03;;;;;;;22.63;17.50;;;28.70;99.90;;;;;;5013327;28;20777;-92
2023/09/09 10:04:37;;;;;;;23.38;16.58;;;27.00;99.90;;;;;;5041027;28;20041;-91
2023/09/09 10:07:04;;;;;;;;;;;29.20;99.90;;;;;;5019029;28;20040;-91
2023/09/09 10:09:40;;;;;;;14.90;10.50;;;29.30;99.90;;;;;;5018098;28;19931;-89
2023/09/09 10:12:19;;;;;;;18.02;14.00;;;26.50;99.90;;;;;;5031359;28;20041;-90
2023/09/09 10:14:49;;;;;;;18.05;14.93;;;27.10;99.90;;;;;;5031693;28;20512;-91
2023/09/09 10:17:16;;;;;;;15.95;11.57;;;28.40;99.90;;;;;;5010359;28;20033;-91
2023/09/09 10:19:43;;;;;;;12.70;9.27;;;29.00;99.90;;;;;;5036979;28;20037;-91
2023/09/09 10:22:10;;;;;;;11.88;8.80;;;29.20;99.90;;;;;;5020272;28;20136;-92
2023/09/09 10:24:36;;;;;;;16.60;12.13;;;28.60;99.90;;;;;;5027205;28;20064;-92
2023/09/09 10:27:03;;;;;;;15.30;11.27;;;27.30;99.90;;;;;;5009065;28;20116;-91
2023/09/09 10:29:34;;;;;;;11.70;9.90;;;26.50;99.90;;;;;;5011972;28;20036;-91
2023/09/09 10:32:03;;;;;;;11.65;10.02;;;25.10;99.90;;;;;;5023377;28;20047;-91
2023/09/09 10:34:30;;;;;;;10.70;8.73;;;26.40;99.90;;;;;;5019718;28;20040;-91
2023/09/09 10:36:59;;;;;;;15.63;10.85;;;25.80;99.90;;;;;;5014958;28;20041;-92
2023/09/09 10:39:25;;;;;;;14.75;10.85;;;27.70;99.90;;;;;;5038123;28;20060;-92
2023/09/09 10:41:52;;;;;;;16.05;11.98;;;28.10;99.90;;;;;;5014778;28;20055;-91
2023/09/09 10:44:18;;;;;;;12.57;10.05;;;26.70;99.90;;;;;;5042947;28;20066;-92
2023/09/09 10:46:43;;;;;;;16.52;7.45;;;27.90;99.90;;;;;;5032462;28;20040;-92
2023/09/09 10:49:14;;;;;;;15.75;8.70;;;27.50;99.90;;;;;;5014027;28;20109;-92
2023/09/09 10:51:49;;;;;;;10.13;7.15;;;27.80;99.90;;;;;;5014872;28;20041;-91
2023/09/09 10:54:17;;;;;;;8.90;7.45;;;24.90;99.90;;;;;;5031430;28;20036;-88
2023/09/09 10:56:51;;;;;;;10.93;8.52;;;24.80;99.90;;;;;;5044137;28;20105;-94
2023/09/09 10:59:20;;;;;;;11.63;7.15;;;27.70;99.90;;;;;;5028094;28;20036;-92
2023/09/09 11:02:08;;;;;;;11.90;7.68;;;24.70;99.90;;;;;;5036352;28;20048;-93
2023/09/09 11:04:38;;;;;;;14.68;9.70;;;26.60;99.90;;;;;;5043557;28;20125;-91
2023/09/09 11:07:13;;;;;;;9.93;8.82;;;25.70;99.90;;;;;;5023372;28;20040;-92
2023/09/09 11:09:51;;;;;;;10.93;9.13;;;27.70;99.90;;;;;;5023063;28;20053;-92
2023/09/09 11:12:18;;;;;;;13.40;9.07;;;27.10;99.90;;;;;;5037249;28;20057;-92
2023/09/09 11:14:45;;;;;;;16.27;9.30;;;25.90;99.90;;;;;;5020675;28;20104;-90
2023/09/09 11:17:14;;;;;;;10.85;8.95;;;25.10;99.90;;;;;;5040226;28;20076;-92
2023/09/09 11:19:41;;;;;;;12.05;8.13;;;27.00;99.90;;;;;;5024354;28;20041;-91
2023/09/09 11:22:08;;;;;;;11.35;9.02;;;25.70;99.90;;;;;;5022479;28;20069;-92
2023/09/09 11:24:35;;;;;;;10.38;8.43;;;28.50;99.90;;;;;;5043370;28;20454;-93
2023/09/09 11:27:02;;;;;;;14.65;11.40;;;27.90;99.90;;;;;;5022367;28;20037;-93
2023/09/09 11:29:29;;;;;;;11.57;8.88;;;25.70;99.90;;;;;;5014223;28;20046;-89
2023/09/09 11:31:55;;;;;;;13.13;9.65;;;25.10;99.90;;;;;;5034924;28;20043;-88
2023/09/09 11:34:32;;;;;;;14.27;11.15;;;26.90;99.90;;;;;;5031995;28;20494;-91
2023/09/09 11:36:59;;;;;;;12.15;10.20;;;27.30;99.90;;;;;;5020326;28;20036;-90
2023/09/09 11:39:25;;;;;;;13.25;10.23;;;27.20;99.90;;;;;;5018230;28;20535;-91
2023/09/09 11:41:51;;;;;;;12.68;10.70;;;25.40;99.90;;;;;;5018655;28;20132;-90
2023/09/09 11:44:16;;;;;;;15.85;13.07;;;27.20;99.90;;;;;;5015898;28;20041;-91
2023/09/09 11:46:45;;;;;;;17.38;11.70;;;27.50;99.90;;;;;;5019291;28;20047;-90
2023/09/09 11:49:13;;;;;;;15.85;11.25;;;25.70;99.90;;;;;;5028835;28;20490;-90
2023/09/09 11:51:39;;;;;;;22.15;12.20;;;26.00;99.90;;;;;;5035621;28;20036;-92
2023/09/09 11:54:08;;;;;;;14.02;10.88;;;27.00;99.90;;;;;;5014911;28;20052;-93
2023/09/09 11:56:34;;;;;;;16.65;11.43;;;28.70;99.90;;;;;;5049704;28;20051;-92
2023/09/09 11:59:06;;;;;;;16.08;12.07;;;27.40;99.90;;;;;;5023503;28;20036;-92
2023/09/09 12:01:45;;;;;;;12.90;10.77;;;26.10;99.90;;;;;;5040817;28;20045;-93
2023/09/09 12:04:13;;;;;;;14.98;11.65;;;25.50;99.90;;;;;;5022515;28;20040;-92
2023/09/09 12:06:43;;;;;;;12.93;10.07;;;25.80;99.90;;;;;;5011979;28;20247;-91
2023/09/09 12:09:09;;;;;;;13.80;9.93;;;27.30;99.90;;;;;;5019993;28;20438;-92
2023/09/09 12:11:36;;;;;;;11.40;9.07;;;27.30;99.90;;;;;;5015149;28;20045;-93
2023/09/09 12:14:02;;;;;;;12.93;8.88;;;27.30;99.90;;;;;;5019908;28;20052;-94
2023/09/09 12:16:33;;;;;;;10.80;8.05;;;26.00;99.90;;;;;;5038513;28;20029;-92
2023/09/09 12:18:59;;;;;;;10.57;7.57;;;27.70;99.90;;;;;;5032042;28;20088;-92
2023/09/09 12:21:25;;;;;;;10.50;7.85;;;26.20;99.90;;;;;;5023324;28;20080;-91
2023/09/09 12:23:58;;;;;;;14.77;7.38;;;27.70;99.90;;;;;;5034407;28;20151;-92
2023/09/09 12:26:23;;;;;;;11.48;7.72;;;26.40;99.90;;;;;;5041980;28;20036;-91
2023/09/09 12:29:09;;;;;;;11.40;9.43;;;28.50;99.90;;;;;;5044393;28;20044;-91
2023/09/09 12:31:58;;;;;;;11.00;8.07;;;26.00;99.90;;;;;;5039320;28;20033;-90
2023/09/09 12:34:25;;;;;;;10.80;7.30;;;26.40;99.90;;;;;;5028593;28;20044;-92
2023/09/09 12:36:58;;;;;;;9.75;7.68;;;26.20;99.90;;;;;;5021086;28;20113;-91
2023/09/09 12:39:26;;;;;;;10.70;8.45;;;27.90;99.90;;;;;;5035922;28;20057;-91
2023/09/09 12:42:07;;;;;;;12.13;8.70;;;26.30;99.90;;;;;;5001335;28;20692;-93
2023/09/09 12:44:49;;;;;;;14.43;8.93;;;26.10;99.90;;;;;;5008870;28;20123;-91
2023/09/09 12:47:24;;;;;;;11.68;7.88;;;27.50;99.90;;;;;;5023441;28;20060;-92
2023/09/09 12:49:50;;;;;;;9.57;8.07;;;26.80;99.90;;;;;;5020407;28;20073;-92
2023/09/09 12:52:16;;;;;;;10.18;7.90;;;27.00;99.90;;;;;;4999391;28;20123;-92
2023/09/09 12:54:42;;;;;;;10.90;7.78;;;28.40;99.90;;;;;;5014333;28;20038;-92
2023/09/09 12:57:08;;;;;;;13.60;8.48;;;27.90;99.90;;;;;;5001365;28;20103;-89
2023/09/09 12:59:34;;;;;;;13.82;10.30;;;27.80;99.90;;;;;;4987816;28;20050;-89
2023/09/09 13:02:00;;;;;;;12.40;8.77;;;23.70;99.90;;;;;;5022220;28;20131;-90
2023/09/09 13:04:25;;;;;;;12.23;8.60;;;26.50;99.90;;;;;;5001691;28;20045;-90
2023/09/09 13:06:51;;;;;;;18.73;10.13;;;25.60;99.90;;;;;;5034598;28;20886;-89
2023/09/09 13:09:16;;;;;;;12.15;9.48;;;28.00;99.90;;;;;;4992892;28;20499;-89